createdAt,value
2019-04-21T00:00:37.614Z,6.61
2019-04-21T00:01:41.971Z,6.68
2019-04-21T00:02:40.949Z,6.83
2019-04-21T00:03:45.616Z,6.97
2019-04-21T00:04:54.346Z,6.89
2019-04-21T00:05:58.645Z,6.95
2019-04-21T00:06:56.927Z,6.90
2019-04-21T00:08:01.596Z,6.94
2019-04-21T00:09:02.706Z,6.89
2019-04-21T00:09:59.563Z,6.94
2019-04-21T00:11:02.869Z,6.90
2019-04-21T00:11:55.388Z,6.98
2019-04-21T00:12:52.290Z,6.95
2019-04-21T00:13:52.549Z,6.94
2019-04-21T00:14:50.996Z,6.90
2019-04-21T00:15:44.485Z,6.87
2019-04-21T00:16:44.324Z,6.87
2019-04-21T00:17:38.970Z,6.94
2019-04-21T00:18:44.623Z,6.94
2019-04-21T00:19:39.072Z,6.97
2019-04-21T00:20:44.201Z,6.94
2019-04-21T00:21:45.019Z,6.76
2019-04-21T00:22:48.078Z,6.76
2019-04-21T00:23:55.348Z,6.87
2019-04-21T00:24:49.740Z,6.81
2019-04-21T00:25:48.775Z,6.79
2019-04-21T00:26:57.499Z,6.81
2019-04-21T00:27:51.698Z,6.79
2019-04-21T00:29:07.286Z,6.71
2019-04-21T00:29:58.781Z,6.63
2019-04-21T00:30:57.350Z,6.62
2019-04-21T00:31:52.636Z,6.62
2019-04-21T00:32:50.920Z,6.50
2019-04-21T00:33:41.270Z,6.48
2019-04-21T00:34:41.095Z,6.46
2019-04-21T00:35:45.386Z,6.29
2019-04-21T00:36:47.296Z,6.36
2019-04-21T00:37:53.411Z,6.29
2019-04-21T00:39:09.975Z,6.18
2019-04-21T00:40:00.046Z,6.10
2019-04-21T00:41:01.628Z,6.16
2019-04-21T00:41:59.197Z,6.00
2019-04-21T00:42:55.862Z,6.16
2019-04-21T00:43:51.916Z,6.10
2019-04-21T00:44:56.588Z,6.03
2019-04-21T00:45:48.082Z,5.96
2019-04-21T00:46:51.314Z,5.86
2019-04-21T00:48:00.909Z,5.75
2019-04-21T00:48:57.410Z,5.66
2019-04-21T00:50:02.028Z,5.55
2019-04-21T00:51:10.933Z,5.60
2019-04-21T00:52:14.420Z,5.48
2019-04-21T00:53:00.439Z,5.49
2019-04-21T00:54:04.166Z,5.43
2019-04-21T00:55:12.276Z,5.46
2019-04-21T00:56:03.376Z,5.32
2019-04-21T00:57:03.675Z,5.28
2019-04-21T00:58:08.373Z,5.31
2019-04-21T00:58:59.539Z,5.30
2019-04-21T01:00:01.212Z,5.19
2019-04-21T01:00:58.095Z,5.27
2019-04-21T01:01:55.230Z,5.22
2019-04-21T01:03:14.749Z,5.34
2019-04-21T01:03:58.462Z,5.34
2019-04-21T01:05:57.598Z,5.30
2019-04-21T01:07:01.619Z,5.38
2019-04-21T01:07:57.932Z,5.48
2019-04-21T01:09:00.929Z,5.40
2019-04-21T01:09:48.842Z,5.35
2019-04-21T01:10:49.927Z,5.35
2019-04-21T01:12:05.198Z,5.35
2019-04-21T01:12:58.437Z,5.28
2019-04-21T01:13:57.982Z,5.37
2019-04-21T01:15:04.216Z,5.30
2019-04-21T01:15:59.206Z,5.22
2019-04-21T01:16:59.087Z,5.22
2019-04-21T01:18:01.472Z,5.16
2019-04-21T01:18:54.776Z,5.25
2019-04-21T01:19:52.306Z,5.20
2019-04-21T01:20:36.734Z,5.12
2019-04-21T01:21:35.778Z,5.10
2019-04-21T01:22:35.792Z,5.10
2019-04-21T01:23:35.860Z,5.09
2019-04-21T01:24:40.207Z,5.12
2019-04-21T01:25:44.109Z,5.09
2019-04-21T01:26:47.089Z,5.10
2019-04-21T01:28:02.253Z,5.01
2019-04-21T01:28:56.878Z,5.02
2019-04-21T01:29:59.716Z,4.95
2019-04-21T01:30:56.889Z,4.91
2019-04-21T01:31:57.293Z,4.96
2019-04-21T01:33:03.583Z,4.92
2019-04-21T01:33:57.482Z,4.96
2019-04-21T01:34:57.634Z,4.88
2019-04-21T01:35:55.300Z,4.94
2019-04-21T01:36:54.789Z,4.95
2019-04-21T01:37:57.156Z,4.98
2019-04-21T01:39:02.150Z,4.89
2019-04-21T01:40:04.108Z,4.94
2019-04-21T01:40:59.163Z,4.95
2019-04-21T01:41:58.796Z,4.86
2019-04-21T01:43:01.134Z,4.88
2019-04-21T01:43:57.813Z,4.88
2019-04-21T01:44:58.277Z,4.80
2019-04-21T01:45:53.562Z,4.80
2019-04-21T01:46:51.882Z,4.79
2019-04-21T01:47:56.804Z,4.77
2019-04-21T01:48:52.527Z,4.73
2019-04-21T01:49:49.147Z,4.69
2019-04-21T01:50:56.812Z,4.72
2019-04-21T01:52:10.811Z,4.65
2019-04-21T01:52:57.368Z,4.77
2019-04-21T01:53:55.056Z,4.92
2019-04-21T01:55:04.904Z,4.96
2019-04-21T01:55:54.175Z,4.95
2019-04-21T01:56:55.712Z,5.04
2019-04-21T01:57:55.305Z,5.13
2019-04-21T01:58:46.291Z,5.14
2019-04-21T01:59:51.182Z,5.14
2019-04-21T02:00:51.947Z,5.19
2019-04-21T02:02:02.317Z,5.32
2019-04-21T02:03:04.292Z,5.27
2019-04-21T02:04:00.021Z,5.30
2019-04-21T02:05:04.015Z,5.31
2019-04-21T02:06:07.642Z,5.31
2019-04-21T02:07:01.330Z,5.31
2019-04-21T02:07:55.204Z,5.22
2019-04-21T02:08:56.352Z,5.19
2019-04-21T02:10:00.839Z,5.12
2019-04-21T02:11:03.390Z,5.16
2019-04-21T02:12:05.841Z,5.09
2019-04-21T02:12:56.698Z,5.13
2019-04-21T02:14:05.424Z,5.12
2019-04-21T02:15:06.587Z,5.22
2019-04-21T02:16:05.476Z,5.20
2019-04-21T02:16:59.646Z,5.25
2019-04-21T02:17:59.510Z,5.27
2019-04-21T02:18:54.617Z,5.31
2019-04-21T02:20:47.584Z,5.31
2019-04-21T02:21:47.511Z,5.25
2019-04-21T02:23:10.395Z,5.22
2019-04-21T02:23:59.861Z,5.25
2019-04-21T02:25:02.863Z,5.07
2019-04-21T02:25:51.029Z,5.14
2019-04-21T02:26:59.235Z,4.99
2019-04-21T02:28:01.255Z,4.95
2019-04-21T02:29:01.836Z,4.83
2019-04-21T02:30:02.720Z,4.75
2019-04-21T02:31:18.154Z,4.61
2019-04-21T02:34:13.486Z,4.52
2019-04-21T02:37:38.369Z,4.46
2019-04-21T02:38:13.232Z,4.47
2019-04-21T02:39:23.162Z,4.50
2019-04-21T02:40:22.297Z,4.57
2019-04-21T02:41:11.239Z,4.59
2019-04-21T02:42:02.051Z,4.65
2019-04-21T02:44:12.421Z,4.57
2019-04-21T02:45:12.382Z,4.55
2019-04-21T02:46:54.548Z,4.58
2019-04-21T02:48:08.867Z,4.58
2019-04-21T02:50:10.063Z,4.59
2019-04-21T02:52:18.226Z,4.47
2019-04-21T02:53:16.357Z,4.37
2019-04-21T02:55:11.307Z,4.33
2019-04-21T02:56:14.496Z,4.29
2019-04-21T02:57:09.223Z,4.24
2019-04-21T02:58:09.761Z,4.19
2019-04-21T02:59:10.112Z,4.24
2019-04-21T03:00:13.846Z,4.40
2019-04-21T03:01:15.990Z,4.50
2019-04-21T03:02:25.073Z,4.44
2019-04-21T03:03:04.686Z,4.39
2019-04-21T03:04:11.216Z,4.42
2019-04-21T03:05:14.832Z,4.44
2019-04-21T03:06:10.522Z,4.61
2019-04-21T03:08:08.477Z,4.64
2019-04-21T03:09:09.173Z,4.80
2019-04-21T03:11:09.064Z,4.73
2019-04-21T03:14:31.219Z,4.69
2019-04-21T03:15:21.892Z,4.70
2019-04-21T03:16:23.409Z,4.75
2019-04-21T03:17:09.651Z,4.75
2019-04-21T03:19:08.817Z,4.59
2019-04-21T03:20:07.194Z,4.59
2019-04-21T03:21:10.851Z,4.65
2019-04-21T03:24:05.292Z,4.36
2019-04-21T03:26:10.182Z,4.29
2019-04-21T03:27:32.831Z,4.29
2019-04-21T03:28:11.709Z,4.19
2019-04-21T03:29:12.550Z,4.29
2019-04-21T03:30:17.023Z,4.36
2019-04-21T03:32:54.213Z,4.39
2019-04-21T03:36:38.007Z,4.42
2019-04-21T03:37:14.053Z,4.28
2019-04-21T03:39:01.166Z,4.19
2019-04-21T03:40:08.084Z,4.28
2019-04-21T03:41:04.031Z,4.16
2019-04-21T03:43:04.945Z,4.03
2019-04-21T03:44:08.062Z,4.03
2019-04-21T03:45:20.552Z,3.97
2019-04-21T03:46:28.230Z,4.01
2019-04-21T03:47:06.902Z,4.25
2019-04-21T03:49:12.648Z,4.42
2019-04-21T03:51:07.285Z,4.43
2019-04-21T03:52:11.932Z,4.36
2019-04-21T03:53:20.298Z,4.37
2019-04-21T03:54:07.922Z,4.32
2019-04-21T03:55:25.226Z,4.28
2019-04-21T03:56:00.608Z,4.25
2019-04-21T03:59:09.964Z,4.34
2019-04-21T04:00:11.008Z,4.36
2019-04-21T04:01:06.027Z,4.39
2019-04-21T04:02:05.872Z,4.36
2019-04-21T04:03:23.712Z,4.40
2019-04-21T04:04:16.071Z,4.32
2019-04-21T04:05:11.063Z,4.39
2019-04-21T04:06:11.485Z,4.42
2019-04-21T04:08:09.439Z,4.52
2019-04-21T04:10:08.273Z,4.55
2019-04-21T04:11:14.365Z,4.46
2019-04-21T04:13:05.550Z,4.64
2019-04-21T04:14:14.143Z,4.54
2019-04-21T04:15:08.679Z,4.50
2019-04-21T04:16:05.952Z,4.33
2019-04-21T04:17:17.783Z,4.34
2019-04-21T04:18:04.230Z,4.21
2019-04-21T04:19:26.463Z,4.18
2019-04-21T04:20:08.984Z,4.24
2019-04-21T04:21:12.674Z,4.22
2019-04-21T04:22:14.730Z,4.22
2019-04-21T04:23:08.162Z,4.25
2019-04-21T04:24:09.007Z,4.15
2019-04-21T04:25:07.363Z,4.06
2019-04-21T04:26:07.415Z,4.04
2019-04-21T04:27:12.087Z,4.16
2019-04-21T04:28:14.111Z,4.10
2019-04-21T04:29:20.020Z,4.14
2019-04-21T04:30:20.171Z,4.14
2019-04-21T04:31:22.278Z,4.24
2019-04-21T04:33:07.976Z,4.24
2019-04-21T04:34:20.048Z,4.19
2019-04-21T04:35:10.331Z,4.19
2019-04-21T04:38:07.139Z,4.29
2019-04-21T04:39:14.177Z,4.26
2019-04-21T04:40:10.532Z,4.24
2019-04-21T04:41:15.364Z,4.36
2019-04-21T04:42:18.225Z,4.28
2019-04-21T04:43:13.170Z,4.32
2019-04-21T04:44:13.693Z,4.37
2019-04-21T04:46:09.596Z,4.32
2019-04-21T04:47:10.404Z,4.32
2019-04-21T04:48:05.536Z,4.32
2019-04-21T04:49:11.469Z,4.42
2019-04-21T04:50:26.296Z,4.50
2019-04-21T04:51:25.104Z,4.52
2019-04-21T04:52:19.287Z,4.54
2019-04-21T04:53:01.883Z,4.55
2019-04-21T04:54:03.856Z,4.59
2019-04-21T04:55:06.779Z,4.75
2019-04-21T04:56:03.845Z,4.80
2019-04-21T04:57:18.267Z,4.77
2019-04-21T04:58:23.451Z,4.83
2019-04-21T05:00:15.357Z,4.94
2019-04-21T05:01:14.202Z,4.98
2019-04-21T05:02:14.943Z,4.95
2019-04-21T05:03:01.415Z,5.01
2019-04-21T05:06:12.002Z,5.05
2019-04-21T05:07:11.842Z,5.12
2019-04-21T05:08:14.951Z,5.13
2019-04-21T05:09:10.863Z,5.14
2019-04-21T05:09:59.784Z,5.31
2019-04-21T05:11:07.763Z,5.16
2019-04-21T05:12:03.587Z,5.23
2019-04-21T05:12:56.945Z,5.37
2019-04-21T05:14:13.364Z,5.38
2019-04-21T05:15:12.741Z,5.68
2019-04-21T05:16:02.510Z,6.38
2019-04-21T05:17:02.260Z,7.29
2019-04-21T05:18:22.428Z,8.17
2019-04-21T05:20:08.634Z,9.70
2019-04-21T05:21:16.070Z,10.30
2019-04-21T05:22:04.987Z,10.95
2019-04-21T05:22:59.752Z,11.32
2019-04-21T05:23:46.968Z,11.75
2019-04-21T05:24:53.820Z,12.05
2019-04-21T05:25:51.137Z,12.38
2019-04-21T05:26:50.255Z,12.74
2019-04-21T05:27:47.248Z,13.15
2019-04-21T05:28:47.322Z,13.18
2019-04-21T05:29:58.696Z,13.33
2019-04-21T05:30:55.340Z,13.49
2019-04-21T05:31:56.397Z,13.69
2019-04-21T05:33:00.303Z,13.89
2019-04-21T05:33:57.667Z,14.17
2019-04-21T05:34:56.996Z,14.46
2019-04-21T05:35:55.484Z,14.83
2019-04-21T05:36:56.769Z,14.95
2019-04-21T05:37:58.639Z,15.12
2019-04-21T05:38:53.449Z,15.43
2019-04-21T05:39:51.207Z,15.36
2019-04-21T05:40:48.291Z,15.27
2019-04-21T05:41:43.036Z,15.23
2019-04-21T05:42:52.962Z,15.48
2019-04-21T05:44:01.612Z,15.72
2019-04-21T05:45:05.011Z,15.92
2019-04-21T05:45:59.687Z,16.20
2019-04-21T05:47:07.835Z,16.23
2019-04-21T05:48:10.135Z,16.55
2019-04-21T05:48:54.772Z,16.77
2019-04-21T05:49:49.907Z,16.90
2019-04-21T05:50:54.057Z,16.95
2019-04-21T05:51:54.969Z,16.59
2019-04-21T05:52:53.523Z,16.77
2019-04-21T05:54:04.895Z,16.89
2019-04-21T05:55:07.603Z,16.86
2019-04-21T05:55:58.634Z,16.85
2019-04-21T05:56:55.506Z,16.58
2019-04-21T05:58:01.291Z,16.48
2019-04-21T05:58:58.139Z,16.68
2019-04-21T05:59:53.130Z,17.18
2019-04-21T06:02:06.169Z,17.87
2019-04-21T06:02:59.222Z,17.22
2019-04-21T06:03:57.684Z,17.18
2019-04-21T06:05:05.571Z,17.63
2019-04-21T06:06:00.473Z,17.79
2019-04-21T06:06:58.013Z,18.04
2019-04-21T06:07:52.679Z,17.73
2019-04-21T06:08:53.879Z,17.78
2019-04-21T06:10:06.919Z,18.03
2019-04-21T06:11:14.848Z,18.39
2019-04-21T06:11:59.823Z,18.65
2019-04-21T06:13:02.365Z,18.55
2019-04-21T06:15:02.694Z,18.95
2019-04-21T06:16:01.078Z,19.21
2019-04-21T06:16:59.706Z,19.35
2019-04-21T06:17:58.227Z,19.61
2019-04-21T06:19:00.723Z,19.87
2019-04-21T06:21:01.353Z,19.78
2019-04-21T06:21:51.171Z,19.46
2019-04-21T06:22:56.531Z,19.61
2019-04-21T06:23:51.506Z,19.35
2019-04-21T06:25:24.329Z,19.48
2019-04-21T06:26:08.775Z,19.21
2019-04-21T06:27:59.001Z,19.72
2019-04-21T06:29:13.495Z,19.91
2019-04-21T06:31:05.880Z,20.77
2019-04-21T06:32:56.731Z,20.71
2019-04-21T06:34:11.220Z,20.41
2019-04-21T06:36:57.081Z,19.02
2019-04-21T06:37:56.999Z,18.98
2019-04-21T06:39:04.725Z,18.52
2019-04-21T06:40:09.292Z,18.36
2019-04-21T06:40:56.431Z,18.70
2019-04-21T06:41:57.133Z,18.67
2019-04-21T06:43:08.218Z,18.83
2019-04-21T06:44:13.035Z,18.49
2019-04-21T06:44:57.621Z,18.91
2019-04-21T06:45:53.996Z,19.50
2019-04-21T06:46:48.933Z,19.23
2019-04-21T06:47:59.511Z,19.57
2019-04-21T06:49:00.184Z,20.33
2019-04-21T06:49:53.725Z,19.80
2019-04-21T06:50:59.365Z,19.10
2019-04-21T06:51:54.584Z,19.46
2019-04-21T06:53:01.008Z,19.86
2019-04-21T06:54:03.557Z,20.24
2019-04-21T06:54:57.162Z,20.23
2019-04-21T06:55:52.519Z,20.69
2019-04-21T06:56:51.567Z,20.74
2019-04-21T06:57:51.639Z,20.74
2019-04-21T06:58:57.921Z,19.70
2019-04-21T06:59:53.655Z,19.88
2019-04-21T07:00:56.218Z,20.34
2019-04-21T07:01:59.782Z,20.16
2019-04-21T07:03:04.725Z,20.46
2019-04-21T07:04:09.835Z,20.54
2019-04-21T07:04:56.081Z,20.56
2019-04-21T07:05:57.276Z,20.47
2019-04-21T07:06:53.697Z,20.56
2019-04-21T07:08:08.860Z,20.25
2019-04-21T07:09:04.380Z,20.27
2019-04-21T07:09:58.103Z,20.77
2019-04-21T07:10:56.747Z,21.34
2019-04-21T07:11:52.656Z,21.45
2019-04-21T07:12:51.626Z,21.69
2019-04-21T07:14:05.672Z,21.56
2019-04-21T07:14:54.715Z,21.16
2019-04-21T07:15:56.832Z,20.56
2019-04-21T07:16:59.532Z,20.59
2019-04-21T07:18:00.164Z,21.09
2019-04-21T07:19:00.038Z,21.48
2019-04-21T07:19:55.407Z,22.02
2019-04-21T07:20:53.274Z,21.98
2019-04-21T07:21:52.543Z,22.12
2019-04-21T07:22:56.827Z,22.10
2019-04-21T07:23:58.954Z,22.22
2019-04-21T07:25:00.336Z,22.39
2019-04-21T07:25:53.141Z,22.56
2019-04-21T07:26:58.469Z,22.99
2019-04-21T07:27:58.039Z,23.07
2019-04-21T07:29:02.931Z,22.72
2019-04-21T07:30:02.532Z,22.52
2019-04-21T07:31:00.568Z,22.43
2019-04-21T07:31:59.289Z,22.19
2019-04-21T07:33:06.387Z,21.94
2019-04-21T07:34:01.614Z,21.41
2019-04-21T07:35:03.614Z,20.72
2019-04-21T07:35:56.882Z,20.69
2019-04-21T07:36:56.152Z,20.86
2019-04-21T07:37:54.787Z,20.15
2019-04-21T07:38:51.438Z,20.03
2019-04-21T07:39:52.812Z,20.31
2019-04-21T07:40:45.555Z,20.65
2019-04-21T07:41:48.536Z,20.64
2019-04-21T07:42:49.814Z,20.00
2019-04-21T07:43:49.589Z,20.02
2019-04-21T07:44:46.094Z,20.74
2019-04-21T07:45:51.584Z,21.45
2019-04-21T07:46:46.949Z,22.02
2019-04-21T07:47:53.105Z,21.66
2019-04-21T07:48:49.750Z,20.99
2019-04-21T07:49:57.495Z,19.53
2019-04-21T07:50:54.385Z,19.91
2019-04-21T07:51:56.415Z,20.21
2019-04-21T07:53:05.063Z,20.79
2019-04-21T07:54:11.735Z,21.46
2019-04-21T07:54:59.660Z,22.01
2019-04-21T07:55:34.236Z,22.28
2019-04-21T07:56:36.228Z,22.44
2019-04-21T07:57:45.600Z,22.43
2019-04-21T07:58:58.776Z,22.46
2019-04-21T08:00:56.301Z,23.02
2019-04-21T08:01:55.029Z,22.96
2019-04-21T08:02:54.023Z,23.02
2019-04-21T08:03:58.150Z,23.17
2019-04-21T08:06:20.739Z,23.45
2019-04-21T08:06:51.618Z,23.40
2019-04-21T08:07:57.991Z,23.07
2019-04-21T08:08:52.901Z,23.01
2019-04-21T08:10:52.279Z,23.26
2019-04-21T08:11:50.041Z,23.29
2019-04-21T08:12:47.767Z,23.14
2019-04-21T08:13:55.157Z,22.86
2019-04-21T08:14:50.821Z,23.02
2019-04-21T08:15:50.985Z,23.08
2019-04-21T08:17:56.646Z,22.46
2019-04-21T08:18:52.158Z,22.39
2019-04-21T08:19:49.718Z,22.65
2019-04-21T08:20:47.990Z,22.86
2019-04-21T08:22:03.847Z,22.97
2019-04-21T08:22:51.810Z,23.29
2019-04-21T08:23:48.142Z,23.32
2019-04-21T08:24:49.174Z,23.27
2019-04-21T08:26:01.150Z,23.39
2019-04-21T08:26:51.567Z,23.60
2019-04-21T08:27:55.570Z,23.64
2019-04-21T08:28:53.741Z,23.85
2019-04-21T08:29:54.460Z,23.76
2019-04-21T08:30:47.848Z,23.83
2019-04-21T08:32:00.870Z,23.90
2019-04-21T08:33:00.822Z,23.83
2019-04-21T08:33:56.430Z,23.72
2019-04-21T08:35:08.519Z,23.65
2019-04-21T08:36:11.024Z,23.62
2019-04-21T08:36:51.602Z,23.49
2019-04-21T08:37:50.959Z,23.29
2019-04-21T08:38:55.512Z,23.58
2019-04-21T08:40:09.806Z,23.71
2019-04-21T08:40:52.879Z,23.57
2019-04-21T08:41:51.239Z,23.58
2019-04-21T08:42:51.645Z,23.72
2019-04-21T08:43:51.947Z,23.43
2019-04-21T08:44:52.468Z,23.58
2019-04-21T08:45:57.299Z,23.60
2019-04-21T08:46:52.836Z,23.50
2019-04-21T08:47:52.072Z,23.55
2019-04-21T08:48:57.950Z,23.15
2019-04-21T08:49:56.903Z,23.09
2019-04-21T08:50:53.843Z,23.12
2019-04-21T08:51:53.965Z,22.84
2019-04-21T08:52:57.044Z,22.97
2019-04-21T08:53:57.423Z,22.65
2019-04-21T08:54:55.818Z,22.56
2019-04-21T08:55:58.025Z,22.01
2019-04-21T08:56:54.691Z,22.32
2019-04-21T08:58:02.384Z,22.78
2019-04-21T08:58:56.068Z,23.04
2019-04-21T08:59:51.872Z,23.05
2019-04-21T09:00:56.581Z,23.24
2019-04-21T09:01:48.945Z,23.47
2019-04-21T09:02:57.611Z,23.60
2019-04-21T09:03:52.093Z,23.42
2019-04-21T09:04:54.179Z,23.47
2019-04-21T09:05:52.629Z,23.50
2019-04-21T09:07:51.031Z,23.85
2019-04-21T09:09:52.938Z,23.53
2019-04-21T09:10:56.054Z,23.58
2019-04-21T09:11:54.293Z,23.46
2019-04-21T09:12:49.046Z,22.35
2019-04-21T09:13:47.704Z,22.17
2019-04-21T09:14:50.666Z,22.29
2019-04-21T09:15:50.721Z,21.63
2019-04-21T09:16:47.560Z,21.69
2019-04-21T09:17:40.855Z,22.13
2019-04-21T09:18:47.274Z,22.54
2019-04-21T09:20:52.137Z,22.52
2019-04-21T09:20:55.274Z,22.53
2019-04-21T09:21:49.985Z,22.82
2019-04-21T09:22:52.562Z,23.15
2019-04-21T09:23:54.509Z,23.15
2019-04-21T09:24:51.921Z,23.14
2019-04-21T09:25:55.468Z,23.24
2019-04-21T09:26:48.099Z,23.09
2019-04-21T09:27:53.019Z,23.15
2019-04-21T09:28:46.415Z,23.04
2019-04-21T09:29:39.231Z,23.07
2019-04-21T09:30:39.582Z,23.39
2019-04-21T09:31:36.574Z,23.62
2019-04-21T09:32:33.435Z,23.62
2019-04-21T09:33:37.745Z,23.67
2019-04-21T09:34:36.991Z,23.77
2019-04-21T09:35:31.592Z,23.72
2019-04-21T09:36:37.730Z,23.86
2019-04-21T09:37:40.958Z,24.17
2019-04-21T09:38:37.155Z,24.12
2019-04-21T09:39:33.272Z,24.14
2019-04-21T09:40:37.250Z,24.37
2019-04-21T09:41:34.878Z,24.41
2019-04-21T09:42:38.389Z,24.29
2019-04-21T09:43:41.150Z,24.35
2019-04-21T09:44:36.742Z,24.54
2019-04-21T09:45:31.265Z,24.67
2019-04-21T09:46:34.153Z,24.07
2019-04-21T09:47:41.811Z,23.98
2019-04-21T09:48:44.287Z,23.97
2019-04-21T09:49:33.228Z,23.79
2019-04-21T09:50:30.202Z,23.70
2019-04-21T09:51:30.586Z,23.17
2019-04-21T09:52:37.553Z,23.01
2019-04-21T09:53:35.154Z,22.71
2019-04-21T09:54:34.021Z,22.83
2019-04-21T09:55:41.551Z,22.71
2019-04-21T09:56:40.681Z,22.75
2019-04-21T09:57:39.154Z,22.17
2019-04-21T09:58:38.674Z,21.71
2019-04-21T09:59:35.593Z,21.59
2019-04-21T10:00:43.548Z,21.94
2019-04-21T10:01:45.085Z,21.88
2019-04-21T10:02:37.563Z,21.59
2019-04-21T10:03:39.606Z,21.27
2019-04-21T10:04:31.199Z,21.11
2019-04-21T10:05:30.022Z,21.32
2019-04-21T10:06:30.652Z,21.36
2019-04-21T10:07:36.491Z,21.04
2019-04-21T10:08:31.859Z,21.09
2019-04-21T10:09:31.056Z,21.11
2019-04-21T10:10:29.965Z,21.01
2019-04-21T10:11:31.053Z,21.09
2019-04-21T10:12:30.661Z,21.06
2019-04-21T10:13:29.954Z,21.09
2019-04-21T10:14:30.935Z,21.26
2019-04-21T10:15:29.914Z,21.34
2019-04-21T10:16:29.975Z,21.50
2019-04-21T10:17:29.919Z,21.26
2019-04-21T10:18:29.905Z,21.23
2019-04-21T10:19:29.884Z,21.26
2019-04-21T10:20:30.899Z,21.32
2019-04-21T10:21:29.877Z,21.13
2019-04-21T10:22:30.995Z,21.27
2019-04-21T10:23:29.863Z,21.34
2019-04-21T10:24:30.667Z,21.24
2019-04-21T10:25:30.657Z,21.17
2019-04-21T10:26:30.548Z,21.11
2019-04-21T10:27:29.802Z,21.17
2019-04-21T10:28:30.982Z,21.35
2019-04-21T10:29:32.696Z,21.53
2019-04-21T10:30:30.730Z,21.48
2019-04-21T10:31:29.762Z,21.54
2019-04-21T10:32:30.216Z,21.71
2019-04-21T10:33:30.357Z,21.51
2019-04-21T10:34:29.706Z,21.60
2019-04-21T10:35:30.949Z,21.41
2019-04-21T10:36:30.949Z,21.56
2019-04-21T10:37:42.543Z,21.64
2019-04-21T10:38:40.125Z,21.45
2019-04-21T10:39:31.555Z,21.41
2019-04-21T10:40:32.567Z,21.32
2019-04-21T10:41:29.849Z,21.02
2019-04-21T10:42:29.686Z,20.79
2019-04-21T10:43:29.646Z,20.71
2019-04-21T10:44:29.637Z,20.72
2019-04-21T10:45:30.740Z,20.80
2019-04-21T10:46:30.730Z,21.01
2019-04-21T10:47:29.564Z,21.26
2019-04-21T10:48:31.722Z,21.32
2019-04-21T10:49:30.669Z,21.36
2019-04-21T10:50:29.550Z,21.45
2019-04-21T10:51:30.823Z,21.38
2019-04-21T10:52:31.260Z,21.48
2019-04-21T10:53:29.534Z,21.48
2019-04-21T10:54:42.049Z,21.23
2019-04-21T10:55:44.674Z,21.24
2019-04-21T10:56:36.325Z,21.27
2019-04-21T10:57:30.620Z,21.24
2019-04-21T10:58:29.478Z,21.32
2019-04-21T10:59:29.432Z,21.39
2019-04-21T11:00:30.115Z,21.48
2019-04-21T11:01:29.578Z,21.78
2019-04-21T11:02:30.625Z,21.71
2019-04-21T11:03:30.914Z,21.61
2019-04-21T11:04:33.724Z,21.20
2019-04-21T11:05:30.573Z,21.05
2019-04-21T11:06:30.800Z,21.35
2019-04-21T11:07:33.479Z,21.38
2019-04-21T11:08:35.698Z,21.51
2019-04-21T11:09:31.776Z,21.64
2019-04-21T11:10:29.781Z,21.76
2019-04-21T11:11:30.190Z,21.97
2019-04-21T11:12:29.321Z,21.99
2019-04-21T11:13:30.617Z,21.64
2019-04-21T11:14:29.423Z,21.74
2019-04-21T11:15:29.476Z,21.71
2019-04-21T11:16:29.346Z,21.88
2019-04-21T11:17:30.235Z,21.91
2019-04-21T11:18:30.069Z,21.79
2019-04-21T11:19:30.581Z,21.98
2019-04-21T11:20:29.220Z,22.07
2019-04-21T11:21:29.342Z,21.97
2019-04-21T11:22:30.663Z,22.01
2019-04-21T11:23:29.163Z,21.82
2019-04-21T11:24:29.257Z,21.78
2019-04-21T11:25:30.437Z,21.79
2019-04-21T11:26:29.860Z,22.06
2019-04-21T11:27:29.153Z,22.17
2019-04-21T11:28:29.350Z,21.90
2019-04-21T11:29:29.106Z,21.95
2019-04-21T11:30:29.765Z,22.10
2019-04-21T11:31:29.277Z,21.83
2019-04-21T11:32:29.075Z,21.61
2019-04-21T11:33:29.100Z,21.74
2019-04-21T11:34:29.314Z,21.74
2019-04-21T11:35:29.046Z,21.82
2019-04-21T11:36:29.241Z,21.90
2019-04-21T11:37:30.400Z,21.61
2019-04-21T11:38:31.810Z,21.59
2019-04-21T11:39:39.168Z,21.53
2019-04-21T11:40:29.988Z,21.54
2019-04-21T11:41:29.821Z,21.81
2019-04-21T11:42:30.066Z,21.95
2019-04-21T11:43:28.968Z,22.02
2019-04-21T11:44:29.120Z,21.94
2019-04-21T11:45:30.432Z,22.02
2019-04-21T11:46:28.909Z,22.13
2019-04-21T11:47:30.239Z,22.43
2019-04-21T11:48:30.260Z,22.54
2019-04-21T11:49:31.975Z,22.65
2019-04-21T11:50:28.873Z,22.78
2019-04-21T11:51:29.018Z,22.53
2019-04-21T11:52:29.184Z,22.25
2019-04-21T11:53:28.918Z,22.22
2019-04-21T11:54:28.900Z,22.29
2019-04-21T11:55:34.299Z,22.57
2019-04-21T11:56:30.500Z,22.57
2019-04-21T11:57:34.967Z,22.74
2019-04-21T11:58:29.963Z,22.75
2019-04-21T11:59:29.863Z,22.84
2019-04-21T12:00:29.498Z,22.75
2019-04-21T12:01:29.733Z,22.56
2019-04-21T12:02:29.768Z,22.74
2019-04-21T12:03:29.477Z,22.53
2019-04-21T12:04:29.529Z,22.14
2019-04-21T12:05:29.726Z,22.17
2019-04-21T12:06:35.100Z,22.09
2019-04-21T12:07:29.702Z,22.02
2019-04-21T12:08:37.231Z,22.14
2019-04-21T12:09:29.662Z,22.12
2019-04-21T12:10:29.307Z,22.41
2019-04-21T12:11:29.405Z,22.41
2019-04-21T12:12:29.617Z,22.57
2019-04-21T12:13:29.927Z,22.59
2019-04-21T12:14:30.148Z,22.31
2019-04-21T12:15:29.190Z,21.99
2019-04-21T12:16:28.836Z,22.13
2019-04-21T12:17:29.898Z,22.09
2019-04-21T12:18:30.140Z,22.31
2019-04-21T12:19:28.558Z,22.43
2019-04-21T12:20:28.664Z,22.49
2019-04-21T12:21:39.050Z,22.75
2019-04-21T12:22:32.520Z,22.80
2019-04-21T12:23:28.518Z,22.80
2019-04-21T12:24:31.146Z,22.62
2019-04-21T12:25:29.174Z,22.50
2019-04-21T12:26:28.483Z,22.37
2019-04-21T12:27:29.836Z,22.34
2019-04-21T12:28:30.097Z,22.54
2019-04-21T12:29:29.099Z,22.64
2019-04-21T12:30:29.421Z,22.60
2019-04-21T12:31:29.691Z,22.28
2019-04-21T12:32:28.400Z,22.27
2019-04-21T12:33:29.658Z,22.28
2019-04-21T12:34:28.380Z,22.28
2019-04-21T12:35:28.395Z,22.28
2019-04-21T12:36:29.521Z,22.25
2019-04-21T12:37:28.926Z,22.31
2019-04-21T12:38:38.073Z,22.29
2019-04-21T12:39:30.539Z,22.37
2019-04-21T12:40:28.462Z,22.43
2019-04-21T12:41:28.782Z,22.32
2019-04-21T12:42:28.291Z,22.43
2019-04-21T12:43:28.580Z,22.44
2019-04-21T12:44:29.455Z,22.56
2019-04-21T12:45:28.393Z,22.57
2019-04-21T12:46:28.253Z,22.43
2019-04-21T12:47:28.250Z,22.41
2019-04-21T12:48:29.520Z,22.28
2019-04-21T12:49:29.651Z,22.37
2019-04-21T12:50:28.228Z,22.54
2019-04-21T12:51:28.202Z,22.22
2019-04-21T12:52:29.408Z,22.32
2019-04-21T12:53:29.602Z,22.53
2019-04-21T12:54:28.168Z,22.74
2019-04-21T12:55:31.905Z,22.78
2019-04-21T12:56:29.489Z,22.83
2019-04-21T12:57:30.247Z,22.59
2019-04-21T12:58:29.103Z,22.60
2019-04-21T12:59:29.661Z,22.71
2019-04-21T13:00:28.958Z,22.92
2019-04-21T13:01:28.091Z,23.09
2019-04-21T13:02:29.326Z,23.17
2019-04-21T13:03:28.689Z,23.14
2019-04-21T13:04:29.327Z,23.14
2019-04-21T13:05:29.516Z,23.34
2019-04-21T13:06:28.019Z,23.38
2019-04-21T13:07:28.010Z,23.17
2019-04-21T13:08:29.283Z,22.87
2019-04-21T13:09:31.731Z,22.86
2019-04-21T13:10:28.438Z,22.87
2019-04-21T13:11:28.852Z,22.69
2019-04-21T13:12:28.979Z,22.75
2019-04-21T13:13:28.174Z,22.86
2019-04-21T13:14:27.934Z,22.82
2019-04-21T13:15:29.243Z,22.74
2019-04-21T13:16:27.926Z,22.80
2019-04-21T13:17:27.921Z,22.84
2019-04-21T13:18:29.034Z,22.93
2019-04-21T13:19:27.890Z,23.05
2019-04-21T13:20:27.897Z,23.20
2019-04-21T13:21:28.011Z,23.39
2019-04-21T13:22:28.057Z,23.52
2019-04-21T13:23:28.918Z,23.38
2019-04-21T13:24:27.869Z,23.27
2019-04-21T13:25:27.957Z,23.09
2019-04-21T13:26:37.244Z,23.04
2019-04-21T13:27:28.946Z,23.02
2019-04-21T13:28:28.346Z,22.87
2019-04-21T13:29:28.185Z,22.78
2019-04-21T13:30:28.410Z,22.90
2019-04-21T13:31:27.744Z,22.99
2019-04-21T13:32:28.841Z,23.08
2019-04-21T13:33:29.200Z,23.14
2019-04-21T13:34:28.327Z,22.97
2019-04-21T13:35:28.908Z,23.07
2019-04-21T13:36:27.746Z,23.15
2019-04-21T13:37:27.803Z,23.24
2019-04-21T13:38:36.376Z,23.35
2019-04-21T13:40:45.074Z,22.99
2019-04-21T13:41:41.982Z,23.09
2019-04-21T13:42:36.694Z,23.05
2019-04-21T13:43:29.352Z,22.99
2019-04-21T13:44:28.805Z,22.82
2019-04-21T13:45:27.842Z,22.77
2019-04-21T13:46:28.844Z,22.77
2019-04-21T13:47:28.242Z,22.83
2019-04-21T13:48:28.618Z,22.78
2019-04-21T13:49:27.543Z,22.84
2019-04-21T13:50:28.935Z,22.56
2019-04-21T13:51:27.532Z,22.67
2019-04-21T13:52:28.850Z,22.77
2019-04-21T13:53:28.513Z,22.67
2019-04-21T13:54:27.501Z,22.75
2019-04-21T13:55:27.665Z,22.87
2019-04-21T13:56:28.916Z,22.96